createdAt,value
2023-03-12T00:02:19.028Z,17.65
2023-03-12T00:05:22.563Z,17.65
2023-03-12T00:08:24.625Z,17.68
2023-03-12T00:11:26.905Z,17.71
2023-03-12T00:14:28.993Z,17.71
2023-03-12T00:17:31.283Z,17.74
2023-03-12T00:20:33.444Z,17.73
2023-03-12T00:23:37.007Z,17.68
2023-03-12T00:26:39.400Z,17.64
2023-03-12T00:29:41.670Z,17.54
2023-03-12T00:32:43.809Z,17.51
2023-03-12T00:35:46.468Z,17.51
2023-03-12T00:38:48.537Z,17.43
2023-03-12T00:41:50.796Z,17.41
2023-03-12T00:44:53.021Z,17.37
2023-03-12T00:47:55.375Z,17.33
2023-03-12T00:50:57.420Z,17.31
2023-03-12T00:53:59.836Z,17.27
2023-03-12T00:57:01.851Z,17.23
2023-03-12T01:00:10.155Z,17.23
2023-03-12T01:03:12.414Z,17.17
2023-03-12T01:06:14.820Z,17.19
2023-03-12T01:09:17.414Z,17.20
2023-03-12T01:12:19.751Z,17.19
2023-03-12T01:15:21.809Z,17.11
2023-03-12T01:18:24.143Z,17.11
2023-03-12T01:21:27.606Z,17.07
2023-03-12T01:24:30.008Z,17.07
2023-03-12T01:27:32.243Z,17.06
2023-03-12T01:30:34.712Z,17.00
2023-03-12T01:33:36.959Z,16.96
2023-03-12T01:36:39.341Z,16.94
2023-03-12T01:39:41.496Z,16.92
2023-03-12T01:42:43.943Z,16.87
2023-03-12T01:46:08.012Z,16.87
2023-03-12T01:49:18.709Z,16.84
2023-03-12T01:52:29.338Z,16.82
2023-03-12T01:55:31.916Z,16.77
2023-03-12T01:58:38.060Z,16.77
2023-03-12T02:01:41.860Z,16.73
2023-03-12T02:04:45.428Z,16.72
2023-03-12T02:07:49.197Z,16.70
2023-03-12T02:10:52.212Z,16.66
2023-03-12T02:13:55.176Z,16.66
2023-03-12T02:16:58.043Z,16.66
2023-03-12T02:20:12.691Z,16.63
2023-03-12T02:23:26.473Z,16.60
2023-03-12T02:26:31.066Z,16.60
2023-03-12T02:29:37.109Z,16.63
2023-03-12T02:32:39.902Z,16.60
2023-03-12T02:35:43.241Z,16.58
2023-03-12T02:38:48.794Z,16.59
2023-03-12T02:41:57.879Z,16.56
2023-03-12T02:45:02.310Z,16.58
2023-03-12T02:48:08.764Z,16.56
2023-03-12T02:51:11.413Z,16.55
2023-03-12T02:54:15.200Z,16.53
2023-03-12T02:57:17.977Z,16.58
2023-03-12T03:00:20.800Z,16.56
2023-03-12T03:03:26.962Z,16.52
2023-03-12T03:06:29.380Z,16.55
2023-03-12T03:09:31.739Z,16.62
2023-03-12T03:12:35.952Z,16.53
2023-03-12T03:15:39.547Z,16.58
2023-03-12T03:18:41.591Z,16.58
2023-03-12T03:21:44.168Z,16.58
2023-03-12T03:24:46.233Z,16.56
2023-03-12T03:27:48.797Z,16.56
2023-03-12T03:30:53.951Z,16.56
2023-03-12T03:33:56.535Z,16.59
2023-03-12T03:36:58.991Z,16.53
2023-03-12T03:40:01.197Z,16.53
2023-03-12T03:43:03.538Z,16.53
2023-03-12T03:46:06.193Z,16.53
2023-03-12T03:49:12.711Z,16.51
2023-03-12T03:52:17.061Z,16.49
2023-03-12T03:55:19.171Z,16.49
2023-03-12T03:58:21.877Z,16.48
2023-03-12T04:01:23.911Z,16.51
2023-03-12T04:04:27.353Z,16.51
2023-03-12T04:07:29.582Z,16.48
2023-03-12T04:10:32.632Z,16.49
2023-03-12T04:13:35.023Z,16.49
2023-03-12T04:16:37.568Z,16.47
2023-03-12T04:19:40.241Z,16.51
2023-03-12T04:22:42.586Z,16.49
2023-03-12T04:25:45.610Z,16.52
2023-03-12T04:28:47.980Z,16.52
2023-03-12T04:31:50.367Z,16.47
2023-03-12T04:34:52.711Z,16.47
2023-03-12T04:37:55.582Z,16.49
2023-03-12T04:41:05.484Z,16.47
2023-03-12T04:44:09.469Z,16.48
2023-03-12T04:47:13.281Z,16.48
2023-03-12T04:50:15.408Z,16.44
2023-03-12T04:53:18.578Z,16.45
2023-03-12T04:56:22.180Z,16.42
2023-03-12T04:59:24.640Z,16.42
2023-03-12T05:02:27.752Z,16.42
2023-03-12T05:05:30.310Z,16.41
2023-03-12T05:08:33.334Z,16.38
2023-03-12T05:11:39.157Z,16.41
2023-03-12T05:14:42.551Z,16.41
2023-03-12T05:17:45.093Z,16.41
2023-03-12T05:20:48.137Z,16.42
2023-03-12T05:23:50.780Z,16.41
2023-03-12T05:26:53.031Z,16.42
2023-03-12T05:29:58.960Z,16.39
2023-03-12T05:33:01.753Z,16.41
2023-03-12T05:36:05.372Z,16.39
2023-03-12T05:39:07.695Z,16.39
2023-03-12T05:42:11.224Z,16.38
2023-03-12T05:45:13.714Z,16.33
2023-03-12T05:48:21.503Z,16.33
2023-03-12T05:51:25.017Z,16.32
2023-03-12T05:54:27.585Z,16.32
2023-03-12T05:57:30.091Z,16.30
2023-03-12T06:00:35.905Z,16.32
2023-03-12T06:03:38.389Z,16.32
2023-03-12T06:06:40.882Z,16.33
2023-03-12T06:09:43.113Z,16.32
2023-03-12T06:12:46.980Z,16.39
2023-03-12T06:15:49.596Z,16.32
2023-03-12T06:18:57.176Z,16.33
2023-03-12T06:21:59.269Z,16.38
2023-03-12T06:25:04.138Z,16.41
2023-03-12T06:28:06.202Z,16.39
2023-03-12T06:31:09.131Z,16.38
2023-03-12T06:34:12.759Z,16.35
2023-03-12T06:37:15.086Z,16.32
2023-03-12T06:40:17.995Z,16.32
2023-03-12T06:43:20.300Z,16.29
2023-03-12T06:46:23.785Z,16.26
2023-03-12T06:49:27.581Z,16.28
2023-03-12T06:52:29.545Z,16.29
2023-03-12T06:55:31.888Z,16.26
2023-03-12T06:58:33.887Z,16.28
2023-03-12T07:01:36.153Z,16.30
2023-03-12T07:04:38.230Z,16.32
2023-03-12T07:07:40.533Z,16.32
2023-03-12T07:10:42.550Z,16.29
2023-03-12T07:13:44.823Z,16.28
2023-03-12T07:16:47.321Z,16.28
2023-03-12T07:19:49.944Z,16.24
2023-03-12T07:22:51.918Z,16.19
2023-03-12T07:25:54.700Z,16.19
2023-03-12T07:28:56.617Z,16.17
2023-03-12T07:31:58.902Z,16.14
2023-03-12T07:35:00.956Z,16.11
2023-03-12T07:38:03.357Z,16.14
2023-03-12T07:41:05.487Z,16.11
2023-03-12T07:44:08.198Z,16.08
2023-03-12T07:47:23.240Z,16.11
2023-03-12T07:50:26.232Z,16.11
2023-03-12T07:53:28.225Z,16.09
2023-03-12T07:56:30.593Z,16.09
2023-03-12T07:59:33.510Z,16.12
2023-03-12T08:02:35.876Z,16.11
2023-03-12T08:05:38.101Z,16.12
2023-03-12T08:08:42.507Z,16.08
2023-03-12T08:11:44.752Z,16.11
2023-03-12T08:14:47.727Z,16.12
2023-03-12T08:17:49.912Z,16.09
2023-03-12T08:20:54.102Z,16.11
2023-03-12T08:23:56.001Z,16.09
2023-03-12T08:26:58.473Z,16.15
2023-03-12T08:30:01.330Z,16.14
2023-03-12T08:33:05.120Z,16.15
2023-03-12T08:36:07.717Z,16.19
2023-03-12T08:39:10.122Z,16.25
2023-03-12T08:42:11.989Z,16.24
2023-03-12T08:45:15.833Z,16.25
2023-03-12T08:48:17.796Z,16.24
2023-03-12T08:51:20.309Z,16.29
2023-03-12T08:54:22.372Z,16.22
2023-03-12T08:57:25.095Z,16.25
2023-03-12T09:00:27.642Z,16.25
2023-03-12T09:03:30.155Z,16.28
2023-03-12T09:06:34.285Z,16.28
2023-03-12T09:09:36.689Z,16.33
2023-03-12T09:12:39.023Z,16.41
2023-03-12T09:15:41.347Z,16.39
2023-03-12T09:18:44.520Z,16.42
2023-03-12T09:21:49.857Z,16.39
2023-03-12T09:24:52.641Z,16.45
2023-03-12T09:27:55.054Z,16.51
2023-03-12T09:30:59.606Z,16.49
2023-03-12T09:34:08.415Z,16.53
2023-03-12T09:37:10.433Z,16.56
2023-03-12T09:40:19.907Z,16.58
2023-03-12T09:43:33.063Z,16.59
2023-03-12T09:46:49.090Z,16.65
2023-03-12T09:49:59.270Z,16.70
2023-03-12T09:53:11.480Z,16.73
2023-03-12T09:56:17.293Z,16.79
2023-03-12T09:59:20.029Z,16.89
2023-03-12T10:02:40.482Z,16.84
2023-03-12T10:05:44.658Z,16.84
2023-03-12T10:09:08.035Z,16.86
2023-03-12T10:12:33.285Z,16.89
2023-03-12T10:15:53.807Z,16.92
2023-03-12T10:19:05.996Z,16.99
2023-03-12T10:22:48.620Z,16.99
2023-03-12T10:26:19.155Z,17.06
2023-03-12T10:29:34.539Z,17.07
2023-03-12T10:32:39.698Z,17.00
2023-03-12T10:35:42.311Z,16.99
2023-03-12T10:38:44.860Z,17.06
2023-03-12T10:41:48.566Z,17.06
2023-03-12T10:45:13.478Z,16.82
2023-03-12T10:48:26.224Z,17.00
2023-03-12T10:51:28.814Z,17.09
2023-03-12T10:54:40.937Z,17.11
2023-03-12T10:57:43.379Z,17.16
2023-03-12T11:00:58.351Z,17.14
2023-03-12T11:04:25.070Z,17.11
2023-03-12T11:07:35.887Z,17.10
2023-03-12T11:10:46.212Z,17.16
2023-03-12T11:14:07.088Z,17.19
2023-03-12T11:17:21.823Z,17.20
2023-03-12T11:20:30.300Z,17.24
2023-03-12T11:23:32.725Z,17.19
2023-03-12T11:26:43.486Z,17.20
2023-03-12T11:29:49.148Z,17.20
2023-03-12T11:32:51.969Z,17.19
2023-03-12T11:36:18.125Z,17.27
2023-03-12T11:39:20.820Z,17.31
2023-03-12T11:42:51.758Z,17.35
2023-03-12T11:46:18.295Z,17.37
2023-03-12T11:49:38.927Z,17.38
2023-03-12T11:52:55.661Z,17.43
2023-03-12T11:56:10.510Z,17.41
2023-03-12T11:59:20.294Z,17.43
2023-03-12T12:02:43.232Z,17.40
2023-03-12T12:05:54.767Z,17.45
2023-03-12T12:09:09.754Z,17.45
2023-03-12T12:12:20.132Z,17.51
2023-03-12T12:15:34.293Z,17.54
2023-03-12T12:18:56.728Z,17.55
2023-03-12T12:22:18.247Z,17.55
2023-03-12T12:25:20.400Z,17.57
2023-03-12T12:28:37.844Z,17.58
2023-03-12T12:31:49.148Z,17.64
2023-03-12T12:35:14.237Z,17.64
2023-03-12T12:38:39.686Z,17.65
2023-03-12T12:41:48.064Z,17.67
2023-03-12T12:44:55.295Z,17.70
2023-03-12T12:48:03.985Z,17.68
2023-03-12T12:51:08.945Z,17.73
2023-03-12T12:54:31.605Z,17.74
2023-03-12T12:57:38.057Z,17.74
2023-03-12T13:00:53.602Z,17.75
2023-03-12T13:04:05.678Z,17.75
2023-03-12T13:07:14.288Z,17.81
2023-03-12T13:10:34.776Z,17.81
2023-03-12T13:13:37.211Z,17.82
2023-03-12T13:16:46.255Z,17.84
2023-03-12T13:19:59.059Z,17.82
2023-03-12T13:23:45.382Z,17.85
2023-03-12T13:27:05.994Z,17.91
2023-03-12T13:30:32.901Z,17.94
2023-03-12T13:33:45.614Z,17.91
2023-03-12T13:36:51.635Z,17.91
2023-03-12T13:39:55.043Z,17.96
2023-03-12T13:43:09.612Z,17.96
2023-03-12T13:46:35.571Z,18.02
2023-03-12T13:49:42.420Z,18.01
2023-03-12T13:52:53.906Z,17.99
2023-03-12T13:56:12.002Z,18.01
2023-03-12T13:59:18.169Z,18.02
2023-03-12T14:02:49.456Z,18.05
2023-03-12T14:06:06.767Z,18.06
2023-03-12T14:09:39.938Z,18.05
2023-03-12T14:13:14.135Z,18.10
2023-03-12T14:16:43.245Z,18.08
2023-03-12T14:19:50.895Z,18.08
2023-03-12T14:23:06.322Z,18.08
2023-03-12T14:26:32.462Z,18.05
2023-03-12T14:30:15.738Z,18.08
2023-03-12T14:33:27.724Z,18.08
2023-03-12T14:36:55.545Z,18.08
2023-03-12T14:40:04.418Z,18.09
2023-03-12T14:43:35.267Z,18.18
2023-03-12T14:47:10.461Z,18.30
2023-03-12T14:50:41.183Z,18.33
2023-03-12T14:53:44.832Z,18.37
2023-03-12T14:56:46.952Z,18.39
2023-03-12T15:00:41.654Z,18.39
2023-03-12T15:03:57.829Z,18.52
2023-03-12T15:07:05.057Z,18.59
2023-03-12T15:10:39.046Z,18.67
2023-03-12T15:13:41.551Z,18.66
2023-03-12T15:16:44.599Z,18.70
2023-03-12T15:19:49.101Z,18.77
2023-03-12T15:22:52.705Z,18.86
2023-03-12T15:26:21.633Z,18.84
2023-03-12T15:29:29.139Z,18.99
2023-03-12T15:32:32.923Z,18.97
2023-03-12T15:35:57.993Z,18.96
2023-03-12T15:39:13.694Z,18.96
2023-03-12T15:42:19.639Z,18.96
2023-03-12T15:45:25.794Z,18.91
2023-03-12T15:48:29.912Z,18.90
2023-03-12T15:51:34.630Z,18.91
2023-03-12T15:54:40.566Z,18.87
2023-03-12T15:57:48.658Z,18.80
2023-03-12T16:00:52.509Z,18.76
2023-03-12T16:03:55.605Z,18.64
2023-03-12T16:06:58.137Z,18.53
2023-03-12T16:10:00.520Z,18.69
2023-03-12T16:13:03.853Z,18.67
2023-03-12T16:16:06.688Z,18.61
2023-03-12T16:19:13.196Z,18.63
2023-03-12T16:22:15.906Z,18.66
2023-03-12T16:25:18.717Z,18.69
2023-03-12T16:28:23.092Z,18.69
2023-03-12T16:31:25.649Z,18.66
2023-03-12T16:34:28.856Z,18.64
2023-03-12T16:37:32.128Z,18.66
2023-03-12T16:40:37.340Z,18.60
2023-03-12T16:43:39.779Z,18.52
2023-03-12T16:46:42.309Z,18.47
2023-03-12T16:49:44.764Z,18.52
2023-03-12T16:52:48.172Z,18.53
2023-03-12T16:55:54.060Z,18.50
2023-03-12T16:59:05.373Z,18.45
2023-03-12T17:02:17.956Z,18.25
2023-03-12T17:05:20.595Z,18.15
2023-03-12T17:08:22.612Z,18.04
2023-03-12T17:11:30.839Z,17.91
2023-03-12T17:14:37.460Z,17.92
2023-03-12T17:17:40.455Z,17.84
2023-03-12T17:20:49.488Z,17.82
2023-03-12T17:23:51.960Z,17.81
2023-03-12T17:26:53.994Z,17.78
2023-03-12T17:29:56.275Z,17.79
2023-03-12T17:33:07.367Z,17.84
2023-03-12T17:36:10.369Z,17.85
2023-03-12T17:39:12.402Z,17.89
2023-03-12T17:42:14.739Z,17.85
2023-03-12T17:45:17.102Z,17.86
2023-03-12T17:48:19.830Z,17.88
2023-03-12T17:51:22.010Z,17.88
2023-03-12T17:54:24.480Z,17.81
2023-03-12T17:57:27.402Z,17.77
2023-03-12T18:00:30.610Z,17.74
2023-03-12T18:03:38.519Z,17.67
2023-03-12T18:06:41.354Z,17.64
2023-03-12T18:09:43.613Z,17.61
2023-03-12T18:12:46.583Z,17.55
2023-03-12T18:15:54.391Z,17.57
2023-03-12T18:18:57.936Z,17.53
2023-03-12T18:22:00.312Z,17.47
2023-03-12T18:25:04.044Z,17.44
2023-03-12T18:28:06.807Z,17.38
2023-03-12T18:31:09.953Z,17.35
2023-03-12T18:34:12.002Z,17.33
2023-03-12T18:37:14.547Z,17.37
2023-03-12T18:40:16.710Z,17.38
2023-03-12T18:43:21.675Z,17.35
2023-03-12T18:46:25.134Z,17.41
2023-03-12T18:49:28.238Z,17.57
2023-03-12T18:52:30.533Z,17.64
2023-03-12T18:55:32.936Z,17.68
2023-03-12T18:58:35.825Z,17.75
2023-03-12T19:01:38.068Z,17.79
2023-03-12T19:04:42.994Z,17.89
2023-03-12T19:07:46.323Z,18.01
2023-03-12T19:11:12.430Z,18.05
2023-03-12T19:14:15.589Z,18.04
2023-03-12T19:17:18.348Z,17.96
2023-03-12T19:20:21.372Z,17.88
2023-03-12T19:23:23.868Z,17.84
2023-03-12T19:26:26.406Z,17.77
2023-03-12T19:29:31.602Z,17.77
2023-03-12T19:32:43.312Z,17.79
2023-03-12T19:35:46.407Z,17.73
2023-03-12T19:38:49.249Z,17.71
2023-03-12T19:41:51.240Z,17.71
2023-03-12T19:44:53.679Z,17.71
2023-03-12T19:47:55.947Z,17.74
2023-03-12T19:51:04.349Z,17.73
2023-03-12T19:54:06.358Z,17.73
2023-03-12T19:57:08.800Z,17.71
2023-03-12T20:00:12.372Z,17.84
2023-03-12T20:03:14.900Z,17.91
2023-03-12T20:06:16.944Z,17.91
2023-03-12T20:09:19.370Z,17.92
2023-03-12T20:12:21.576Z,17.96
2023-03-12T20:15:24.043Z,17.99
2023-03-12T20:18:26.173Z,18.02
2023-03-12T20:21:30.246Z,18.10
2023-03-12T20:24:32.923Z,18.15
2023-03-12T20:27:35.340Z,18.09
2023-03-12T20:30:40.619Z,18.06
2023-03-12T20:33:43.196Z,18.06
2023-03-12T20:36:45.085Z,18.02
2023-03-12T20:39:47.467Z,17.89
2023-03-12T20:42:49.746Z,17.75
2023-03-12T20:45:52.174Z,17.85
2023-03-12T20:48:56.622Z,17.77
2023-03-12T20:52:02.255Z,17.73
2023-03-12T20:55:05.048Z,17.58
2023-03-12T20:58:07.615Z,17.57
2023-03-12T21:01:10.658Z,17.53
2023-03-12T21:04:13.015Z,17.50
2023-03-12T21:07:16.554Z,17.48
2023-03-12T21:10:19.010Z,17.50
2023-03-12T21:13:23.759Z,17.54
2023-03-12T21:16:26.219Z,17.47
2023-03-12T21:19:31.279Z,17.38
2023-03-12T21:22:33.802Z,17.37
2023-03-12T21:25:37.407Z,17.34
2023-03-12T21:28:39.840Z,17.34
2023-03-12T21:31:41.995Z,17.31
2023-03-12T21:34:44.574Z,17.17
2023-03-12T21:37:46.851Z,17.26
2023-03-12T21:40:49.107Z,17.33
2023-03-12T21:43:51.166Z,17.45
2023-03-12T21:46:53.580Z,17.47
2023-03-12T21:49:55.672Z,17.53
2023-03-12T21:52:58.218Z,17.47
2023-03-12T21:56:01.630Z,17.44
2023-03-12T21:59:04.163Z,17.41
2023-03-12T22:02:07.005Z,17.44
2023-03-12T22:05:10.094Z,17.40
2023-03-12T22:08:12.152Z,17.43
2023-03-12T22:11:15.377Z,17.47
2023-03-12T22:14:17.675Z,17.57
2023-03-12T22:17:20.165Z,17.63
2023-03-12T22:20:22.404Z,17.53
2023-03-12T22:23:25.704Z,17.09
2023-03-12T22:26:28.569Z,17.23
2023-03-12T22:29:31.010Z,17.21
2023-03-12T22:32:33.310Z,17.38
2023-03-12T22:35:42.585Z,17.57
2023-03-12T22:38:45.279Z,17.48
2023-03-12T22:41:50.800Z,17.44
2023-03-12T22:44:52.952Z,17.23
2023-03-12T22:47:55.272Z,17.41
2023-03-12T22:50:57.419Z,17.23
2023-03-12T22:54:00.571Z,17.19
2023-03-12T22:57:02.793Z,16.84
2023-03-12T23:00:10.502Z,17.09
2023-03-12T23:03:12.515Z,17.10
2023-03-12T23:06:17.492Z,16.89
2023-03-12T23:09:19.652Z,16.94
2023-03-12T23:12:22.263Z,17.20
2023-03-12T23:15:29.095Z,17.28
2023-03-12T23:18:38.929Z,17.10
2023-03-12T23:21:43.309Z,17.16
2023-03-12T23:24:45.507Z,17.35
2023-03-12T23:27:47.518Z,17.09
2023-03-12T23:31:01.989Z,16.92
2023-03-12T23:34:04.801Z,17.11
2023-03-12T23:37:07.670Z,17.07
2023-03-12T23:40:11.317Z,17.17
2023-03-12T23:43:13.728Z,17.07
2023-03-12T23:46:17.238Z,17.10
2023-03-12T23:49:19.700Z,17.33
2023-03-12T23:52:21.691Z,17.11
2023-03-12T23:55:23.912Z,17.06
2023-03-12T23:58:26.641Z,17.27
